createdAt,value
2023-02-09T00:01:38.023Z,3.43
2023-02-09T00:04:08.038Z,3.67
2023-02-09T00:06:40.370Z,3.13
2023-02-09T00:09:10.118Z,3.63
2023-02-09T00:11:52.302Z,3.83
2023-02-09T00:14:23.389Z,3.50
2023-02-09T00:16:53.446Z,3.50
2023-02-09T00:19:24.630Z,3.80
2023-02-09T00:21:57.400Z,4.07
2023-02-09T00:24:27.427Z,3.47
2023-02-09T00:26:57.186Z,4.10
2023-02-09T00:29:27.691Z,3.57
2023-02-09T00:31:57.568Z,3.87
2023-02-09T00:34:27.317Z,4.17
2023-02-09T00:36:59.589Z,3.97
2023-02-09T00:39:29.327Z,3.90
2023-02-09T00:42:11.385Z,3.67
2023-02-09T00:44:42.730Z,4.30
2023-02-09T00:47:13.058Z,4.13
2023-02-09T00:49:42.880Z,4.33
2023-02-09T00:52:15.165Z,3.90
2023-02-09T00:54:44.854Z,4.10
2023-02-09T00:57:14.598Z,4.30
2023-02-09T00:59:44.360Z,4.33
2023-02-09T01:02:14.016Z,4.27
2023-02-09T01:04:43.863Z,4.30
2023-02-09T01:07:16.158Z,4.43
2023-02-09T01:09:45.829Z,4.53
2023-02-09T01:12:15.634Z,4.43
2023-02-09T01:14:45.637Z,4.00
2023-02-09T01:17:15.656Z,4.10
2023-02-09T01:19:45.327Z,4.47
2023-02-09T01:22:18.205Z,3.80
2023-02-09T01:24:47.941Z,4.00
2023-02-09T01:27:17.786Z,4.77
2023-02-09T01:29:47.981Z,4.27
2023-02-09T01:32:17.739Z,4.13
2023-02-09T01:34:47.509Z,4.50
2023-02-09T01:37:19.832Z,4.00
2023-02-09T01:39:49.761Z,4.50
2023-02-09T01:42:20.134Z,4.10
2023-02-09T01:45:08.802Z,3.87
2023-02-09T01:47:44.654Z,3.57
2023-02-09T01:50:16.140Z,4.20
2023-02-09T01:52:51.094Z,5.07
2023-02-09T01:55:25.225Z,3.63
2023-02-09T01:58:00.503Z,3.97
2023-02-09T02:00:30.684Z,3.67
2023-02-09T02:03:04.725Z,4.30
2023-02-09T02:05:37.356Z,3.97
2023-02-09T02:08:17.908Z,4.60
2023-02-09T02:10:47.882Z,3.70
2023-02-09T02:13:17.829Z,3.60
2023-02-09T02:16:01.983Z,4.87
2023-02-09T02:18:51.524Z,4.60
2023-02-09T02:22:12.270Z,4.40
2023-02-09T02:25:18.786Z,4.33
2023-02-09T02:27:51.624Z,3.17
2023-02-09T02:30:39.696Z,4.93
2023-02-09T02:33:29.792Z,4.77
2023-02-09T02:36:07.124Z,5.03
2023-02-09T02:38:41.811Z,5.13
2023-02-09T02:41:17.827Z,4.43
2023-02-09T02:44:00.018Z,4.50
2023-02-09T02:46:36.229Z,5.07
2023-02-09T02:49:15.091Z,4.13
2023-02-09T02:51:48.515Z,5.13
2023-02-09T02:54:22.579Z,4.87
2023-02-09T02:56:56.422Z,5.23
2023-02-09T02:59:30.118Z,5.43
2023-02-09T03:02:06.389Z,4.77
2023-02-09T03:04:40.760Z,4.57
2023-02-09T03:07:10.602Z,5.30
2023-02-09T03:09:40.341Z,4.60
2023-02-09T03:12:18.103Z,4.90
2023-02-09T03:21:17.414Z,4.97
2023-02-09T03:23:55.551Z,4.07
2023-02-09T03:26:29.569Z,6.10
2023-02-09T03:29:02.045Z,4.70
2023-02-09T03:31:33.440Z,5.67
2023-02-09T03:34:03.619Z,5.60
2023-02-09T03:36:40.319Z,5.47
2023-02-09T03:39:10.031Z,5.67
2023-02-09T03:41:39.934Z,4.70
2023-02-09T03:44:22.064Z,4.50
2023-02-09T03:46:51.887Z,4.70
2023-02-09T03:49:21.765Z,3.57
2023-02-09T03:51:54.348Z,4.90
2023-02-09T03:54:24.438Z,5.57
2023-02-09T03:56:54.244Z,5.47
2023-02-09T03:59:25.326Z,4.70
2023-02-09T04:01:55.735Z,5.90
2023-02-09T04:04:25.875Z,4.70
2023-02-09T04:06:58.945Z,5.20
2023-02-09T04:09:30.042Z,5.33
2023-02-09T04:11:59.937Z,5.70
2023-02-09T04:14:29.645Z,5.70
2023-02-09T04:16:59.266Z,4.90
2023-02-09T04:19:29.329Z,5.60
2023-02-09T04:22:01.675Z,5.13
2023-02-09T04:24:32.031Z,5.00
2023-02-09T04:27:01.720Z,5.93
2023-02-09T04:29:31.588Z,5.37
2023-02-09T04:32:01.324Z,5.77
2023-02-09T04:34:33.846Z,5.40
2023-02-09T04:37:06.131Z,5.83
2023-02-09T04:39:35.865Z,6.57
2023-02-09T04:42:05.688Z,4.97
2023-02-09T04:44:35.359Z,5.47
2023-02-09T04:47:05.062Z,6.17
2023-02-09T04:49:34.857Z,5.27
2023-02-09T04:52:07.505Z,5.80
2023-02-09T04:54:37.168Z,5.60
2023-02-09T04:57:19.293Z,5.10
2023-02-09T04:59:49.030Z,5.23
2023-02-09T05:02:18.779Z,6.80
2023-02-09T05:04:48.515Z,5.80
2023-02-09T05:07:20.888Z,5.67
2023-02-09T05:09:50.579Z,6.53
2023-02-09T05:12:20.272Z,6.40
2023-02-09T05:14:49.964Z,5.90
2023-02-09T05:17:21.289Z,6.33
2023-02-09T05:19:51.434Z,6.10
2023-02-09T05:22:23.800Z,6.20
2023-02-09T05:24:53.712Z,4.90
2023-02-09T05:27:23.420Z,5.70
2023-02-09T05:29:53.071Z,5.37
2023-02-09T05:32:22.821Z,6.30
2023-02-09T05:34:52.594Z,6.33
2023-02-09T05:37:24.920Z,6.50
2023-02-09T05:39:54.666Z,6.30
2023-02-09T05:42:24.409Z,6.30
2023-02-09T05:44:54.520Z,6.20
2023-02-09T05:47:26.844Z,5.80
2023-02-09T05:49:56.541Z,5.93
2023-02-09T05:52:28.934Z,6.00
2023-02-09T05:54:58.612Z,6.20
2023-02-09T05:57:28.407Z,5.97
2023-02-09T05:59:58.168Z,6.00
2023-02-09T06:02:27.930Z,4.57
2023-02-09T06:04:57.615Z,5.83
2023-02-09T06:07:30.066Z,6.10
2023-02-09T06:09:59.774Z,5.70
2023-02-09T06:12:29.600Z,7.57
2023-02-09T06:14:59.381Z,6.57
2023-02-09T06:17:29.138Z,6.40
2023-02-09T06:19:58.851Z,5.70
2023-02-09T06:22:31.979Z,6.57
2023-02-09T06:25:01.801Z,6.10
2023-02-09T06:27:31.553Z,6.70
2023-02-09T06:30:01.232Z,5.30
2023-02-09T06:32:30.958Z,6.97
2023-02-09T06:35:00.784Z,7.37
2023-02-09T06:37:33.306Z,6.27
2023-02-09T06:40:03.098Z,6.73
2023-02-09T06:42:44.097Z,6.07
2023-02-09T06:45:14.361Z,6.53
2023-02-09T06:47:44.700Z,6.60
2023-02-09T06:50:16.018Z,7.00
2023-02-09T06:52:48.992Z,5.57
2023-02-09T06:55:18.859Z,6.47
2023-02-09T06:57:48.837Z,6.23
2023-02-09T07:00:19.666Z,6.93
2023-02-09T07:02:49.778Z,6.70
2023-02-09T07:05:20.950Z,7.00
2023-02-09T07:07:53.308Z,6.33
2023-02-09T07:10:23.275Z,7.33
2023-02-09T07:12:53.097Z,6.83
2023-02-09T07:15:22.872Z,6.40
2023-02-09T07:17:52.607Z,7.23
2023-02-09T07:20:22.633Z,6.70
2023-02-09T07:22:54.897Z,6.40
2023-02-09T07:25:24.633Z,6.17
2023-02-09T07:27:54.458Z,7.20
2023-02-09T07:30:24.316Z,6.97
2023-02-09T07:32:53.983Z,6.67
2023-02-09T07:35:23.717Z,6.33
2023-02-09T07:37:56.073Z,7.07
2023-02-09T07:40:25.943Z,6.57
2023-02-09T07:42:55.740Z,6.23
2023-02-09T07:45:25.525Z,7.00
2023-02-09T07:47:55.198Z,6.77
2023-02-09T07:50:24.968Z,6.60
2023-02-09T07:52:58.620Z,7.50
2023-02-09T07:55:28.305Z,6.73
2023-02-09T07:57:58.036Z,6.40
2023-02-09T08:00:27.958Z,5.80
2023-02-09T08:02:58.116Z,8.17
2023-02-09T08:05:33.887Z,6.60
2023-02-09T08:08:06.287Z,7.27
2023-02-09T08:10:36.328Z,6.97
2023-02-09T08:13:06.243Z,4.73
2023-02-09T08:15:43.968Z,7.83
2023-02-09T08:18:18.714Z,7.30
2023-02-09T08:20:49.532Z,7.13
2023-02-09T08:23:26.102Z,7.37
2023-02-09T08:25:56.920Z,7.60
2023-02-09T08:28:41.639Z,6.93
2023-02-09T08:31:12.960Z,7.87
2023-02-09T08:33:43.341Z,6.67
2023-02-09T08:36:14.254Z,7.40
2023-02-09T08:38:48.189Z,7.90
2023-02-09T08:41:19.679Z,7.13
2023-02-09T08:43:53.121Z,7.93
2023-02-09T08:46:22.876Z,7.30
2023-02-09T08:48:52.611Z,7.20
2023-02-09T08:51:22.381Z,7.83
2023-02-09T08:53:54.854Z,7.60
2023-02-09T08:56:25.632Z,6.93
2023-02-09T08:58:55.385Z,8.23
2023-02-09T09:01:25.103Z,8.50
2023-02-09T09:03:55.111Z,8.87
2023-02-09T09:06:25.078Z,7.80
2023-02-09T09:08:57.660Z,7.17
2023-02-09T09:11:28.247Z,7.43
2023-02-09T09:13:58.375Z,8.50
2023-02-09T09:16:28.178Z,8.30
2023-02-09T09:18:57.981Z,6.20
2023-02-09T09:21:28.434Z,7.27
2023-02-09T09:24:00.754Z,7.70
2023-02-09T09:26:30.583Z,8.43
2023-02-09T09:29:00.548Z,4.57
2023-02-09T09:31:30.836Z,8.50
2023-02-09T09:34:00.593Z,7.03
2023-02-09T09:36:30.534Z,8.27
2023-02-09T09:39:03.119Z,7.90
2023-02-09T09:41:37.581Z,8.47
2023-02-09T09:44:16.667Z,8.73
2023-02-09T09:46:49.631Z,9.00
2023-02-09T09:49:25.741Z,8.17
2023-02-09T09:51:59.737Z,8.17
2023-02-09T09:54:36.302Z,7.80
2023-02-09T09:57:06.349Z,8.00
2023-02-09T09:59:39.429Z,8.90
2023-02-09T10:02:21.175Z,8.23
2023-02-09T10:04:51.288Z,7.57
2023-02-09T10:07:23.947Z,8.03
2023-02-09T10:10:02.210Z,7.93
2023-02-09T10:12:39.243Z,7.87
2023-02-09T10:15:28.116Z,8.40
2023-02-09T10:17:58.296Z,7.80
2023-02-09T10:20:46.924Z,7.30
2023-02-09T10:23:28.781Z,7.03
2023-02-09T10:26:05.821Z,6.17
2023-02-09T10:28:37.604Z,8.10
2023-02-09T10:31:14.956Z,4.73
2023-02-09T10:33:47.290Z,5.80
2023-02-09T10:36:30.272Z,7.27
2023-02-09T10:39:13.696Z,6.13
2023-02-09T10:41:49.350Z,6.83
2023-02-09T10:44:23.409Z,5.63
2023-02-09T10:46:53.705Z,7.90
2023-02-09T10:49:36.478Z,8.43
2023-02-09T10:52:17.007Z,5.73
2023-02-09T10:54:50.820Z,4.77
2023-02-09T10:57:31.011Z,6.33
2023-02-09T11:00:02.558Z,7.30
2023-02-09T11:02:41.346Z,7.80
2023-02-09T11:05:29.701Z,8.17
2023-02-09T11:08:09.914Z,8.33
2023-02-09T11:10:46.151Z,8.53
2023-02-09T11:13:27.817Z,8.57
2023-02-09T11:16:30.524Z,8.07
2023-02-09T11:19:05.877Z,8.20
2023-02-09T11:21:49.675Z,8.43
2023-02-09T11:24:27.125Z,8.57
2023-02-09T11:27:03.557Z,8.63
2023-02-09T11:29:44.038Z,7.87
2023-02-09T11:32:22.485Z,8.67
2023-02-09T11:35:13.975Z,7.77
2023-02-09T11:37:53.110Z,9.93
2023-02-09T11:40:27.609Z,9.47
2023-02-09T11:43:13.132Z,8.80
2023-02-09T11:45:48.982Z,8.07
2023-02-09T11:48:26.194Z,10.10
2023-02-09T11:51:04.527Z,8.73
2023-02-09T11:53:43.936Z,9.00
2023-02-09T11:56:16.760Z,8.90
2023-02-09T11:58:51.596Z,10.57
2023-02-09T12:01:36.139Z,9.53
2023-02-09T12:04:18.741Z,8.67
2023-02-09T12:06:52.901Z,9.13
2023-02-09T12:09:38.676Z,9.53
2023-02-09T12:12:18.638Z,10.30
2023-02-09T12:14:58.444Z,9.03
2023-02-09T12:17:42.717Z,9.17
2023-02-09T12:20:26.900Z,9.37
2023-02-09T12:23:04.579Z,8.83
2023-02-09T12:25:50.213Z,6.93
2023-02-09T12:28:48.449Z,9.97
2023-02-09T12:31:24.420Z,9.30
2023-02-09T12:34:16.186Z,10.70
2023-02-09T12:37:30.417Z,9.03
2023-02-09T12:40:20.248Z,11.87
2023-02-09T12:43:23.758Z,11.37
2023-02-09T12:46:20.512Z,11.60
2023-02-09T12:49:02.251Z,10.17
2023-02-09T12:52:12.735Z,9.27
2023-02-09T12:54:51.986Z,10.43
2023-02-09T12:57:54.941Z,9.83
2023-02-09T13:00:44.071Z,9.40
2023-02-09T13:03:24.682Z,11.53
2023-02-09T13:05:59.820Z,8.50
2023-02-09T13:08:53.417Z,9.47
2023-02-09T13:11:29.415Z,10.07
2023-02-09T13:14:03.294Z,9.73
2023-02-09T13:16:53.512Z,9.63
2023-02-09T13:19:53.398Z,10.10
2023-02-09T13:22:32.987Z,10.10
2023-02-09T13:25:16.593Z,9.60
2023-02-09T13:27:48.366Z,9.17
2023-02-09T13:30:28.536Z,9.20
2023-02-09T13:33:08.632Z,8.80
2023-02-09T13:35:46.873Z,13.80
2023-02-09T13:38:21.615Z,10.70
2023-02-09T13:40:55.510Z,9.60
2023-02-09T13:43:32.242Z,9.17
2023-02-09T13:46:03.371Z,9.60
2023-02-09T13:48:35.685Z,8.50
2023-02-09T13:51:17.230Z,8.43
2023-02-09T13:53:59.148Z,8.60
2023-02-09T13:56:33.883Z,8.97
2023-02-09T13:59:04.314Z,8.93
2023-02-09T14:01:36.572Z,9.73
2023-02-09T14:04:12.930Z,9.03
2023-02-09T14:06:47.299Z,9.77
2023-02-09T14:09:21.221Z,8.53
2023-02-09T14:11:56.434Z,8.43
2023-02-09T14:14:29.580Z,8.60
2023-02-09T14:17:24.857Z,9.07
2023-02-09T14:19:56.670Z,8.30
2023-02-09T14:22:33.630Z,8.27
2023-02-09T14:25:03.805Z,7.40
2023-02-09T14:27:41.985Z,8.73
2023-02-09T14:30:18.409Z,8.60
2023-02-09T14:32:48.512Z,8.77
2023-02-09T14:35:22.169Z,8.83
2023-02-09T14:37:53.990Z,9.40
2023-02-09T14:40:34.330Z,9.13
2023-02-09T14:43:25.103Z,9.33
2023-02-09T14:46:01.995Z,9.03
2023-02-09T14:48:33.278Z,10.00
2023-02-09T14:51:05.239Z,9.93
2023-02-09T14:53:36.040Z,9.03
2023-02-09T14:56:05.746Z,10.27
2023-02-09T14:58:38.092Z,8.77
2023-02-09T15:01:09.172Z,8.50
2023-02-09T15:03:38.922Z,8.10
2023-02-09T15:06:09.184Z,7.63
2023-02-09T15:08:40.376Z,8.70
2023-02-09T15:11:25.956Z,8.17
2023-02-09T15:14:01.662Z,7.33
2023-02-09T15:16:31.373Z,8.43
2023-02-09T15:19:04.089Z,7.27
2023-02-09T15:21:33.817Z,8.20
2023-02-09T15:24:03.581Z,7.67
2023-02-09T15:26:38.424Z,7.97
2023-02-09T15:29:14.112Z,7.90
2023-02-09T15:31:44.217Z,7.60
2023-02-09T15:34:15.567Z,7.90
2023-02-09T15:36:45.370Z,7.10
2023-02-09T15:39:21.479Z,7.97
2023-02-09T15:42:03.592Z,7.57
2023-02-09T15:44:48.584Z,7.97
2023-02-09T15:47:30.673Z,7.57
2023-02-09T15:50:00.444Z,7.63
2023-02-09T15:52:33.034Z,7.80
2023-02-09T15:55:02.988Z,7.23
2023-02-09T15:57:32.972Z,7.47
2023-02-09T16:00:11.799Z,8.20
2023-02-09T16:02:41.671Z,6.57
2023-02-09T16:05:11.565Z,7.90
2023-02-09T16:07:41.299Z,7.23
2023-02-09T16:10:16.239Z,7.83
2023-02-09T16:12:45.963Z,8.10
2023-02-09T16:15:22.927Z,7.87
2023-02-09T16:17:52.762Z,8.63
2023-02-09T16:20:25.807Z,8.10
2023-02-09T16:22:57.511Z,8.00
2023-02-09T16:25:28.884Z,7.97
2023-02-09T16:28:01.078Z,8.17
2023-02-09T16:30:37.888Z,8.00
2023-02-09T16:33:07.746Z,9.00
2023-02-09T16:35:37.434Z,9.30
2023-02-09T16:38:19.007Z,9.63
2023-02-09T16:40:52.054Z,9.20
2023-02-09T16:43:22.630Z,12.13
2023-02-09T16:46:03.386Z,9.63
2023-02-09T16:48:35.730Z,9.80
2023-02-09T16:51:05.827Z,10.30
2023-02-09T16:53:40.811Z,9.53
2023-02-09T16:56:12.478Z,8.33
2023-02-09T16:58:42.365Z,8.47
2023-02-09T17:01:21.149Z,9.83
2023-02-09T17:03:53.592Z,12.23
2023-02-09T17:06:25.472Z,11.67
2023-02-09T17:08:56.792Z,11.57
2023-02-09T17:11:27.900Z,10.83
2023-02-09T17:13:57.588Z,10.77
2023-02-09T17:16:34.041Z,12.90
2023-02-09T17:19:05.479Z,10.60
2023-02-09T17:21:38.966Z,10.00
2023-02-09T17:24:14.254Z,10.00
2023-02-09T17:26:44.115Z,9.50
2023-02-09T17:29:14.629Z,9.27
2023-02-09T17:31:53.168Z,9.70
2023-02-09T17:34:27.296Z,10.60
2023-02-09T17:36:57.323Z,10.10
2023-02-09T17:39:29.902Z,9.97
2023-02-09T17:42:01.014Z,10.27
2023-02-09T17:44:45.617Z,10.87
2023-02-09T17:47:20.888Z,12.47
2023-02-09T17:49:50.617Z,14.27
2023-02-09T17:52:21.616Z,12.60
2023-02-09T17:54:51.547Z,24.53
2023-02-09T17:57:21.267Z,22.30
2023-02-09T17:59:51.017Z,21.80
2023-02-09T18:02:23.390Z,17.57
2023-02-09T18:04:53.089Z,13.93
2023-02-09T18:07:22.828Z,14.70
2023-02-09T18:09:54.433Z,13.47
2023-02-09T18:12:29.174Z,13.57
2023-02-09T18:14:59.293Z,11.73
2023-02-09T18:17:31.668Z,16.90
2023-02-09T18:20:01.421Z,14.13
2023-02-09T18:22:31.314Z,13.80
2023-02-09T18:25:01.580Z,13.33
2023-02-09T18:27:31.377Z,13.93
2023-02-09T18:30:01.128Z,12.53
2023-02-09T18:32:33.466Z,9.87
2023-02-09T18:35:03.169Z,11.70
2023-02-09T18:37:32.873Z,14.50
2023-02-09T18:40:02.625Z,14.87
2023-02-09T18:42:32.419Z,12.30
2023-02-09T18:45:02.556Z,11.10
2023-02-09T18:47:36.498Z,13.37
2023-02-09T18:50:06.831Z,11.87
2023-02-09T18:52:36.739Z,12.77
2023-02-09T18:55:06.654Z,13.57
2023-02-09T18:57:36.397Z,13.13
2023-02-09T19:00:07.890Z,13.73
2023-02-09T19:02:40.233Z,11.97
2023-02-09T19:05:10.371Z,13.63
2023-02-09T19:07:40.133Z,13.53
2023-02-09T19:10:11.135Z,14.67
2023-02-09T19:12:41.637Z,13.13
2023-02-09T19:15:11.854Z,15.63
2023-02-09T19:17:44.614Z,12.57
2023-02-09T19:20:17.994Z,12.50
2023-02-09T19:22:48.165Z,12.37
2023-02-09T19:25:18.107Z,14.13
2023-02-09T19:27:47.697Z,11.33
2023-02-09T19:30:21.510Z,11.73
2023-02-09T19:32:54.037Z,12.53
2023-02-09T19:35:24.720Z,13.30
2023-02-09T19:37:55.064Z,13.57
2023-02-09T19:40:28.630Z,13.73
2023-02-09T19:42:58.916Z,13.63
2023-02-09T19:45:31.105Z,14.17
2023-02-09T19:48:03.491Z,15.47
2023-02-09T19:50:33.217Z,14.63
2023-02-09T19:53:03.011Z,15.67
2023-02-09T19:55:32.822Z,14.67
2023-02-09T19:58:02.519Z,12.97
2023-02-09T20:00:32.278Z,15.37
2023-02-09T20:03:04.743Z,14.80
2023-02-09T20:05:34.543Z,16.47
2023-02-09T20:08:05.241Z,16.43
2023-02-09T20:10:34.972Z,15.40
2023-02-09T20:13:05.673Z,15.80
2023-02-09T20:15:36.275Z,15.53
2023-02-09T20:18:08.730Z,14.90
2023-02-09T20:20:38.524Z,15.67
2023-02-09T20:23:08.313Z,15.37
2023-02-09T20:25:38.199Z,15.83
2023-02-09T20:28:08.381Z,15.80
2023-02-09T20:30:38.375Z,15.90
2023-02-09T20:33:11.666Z,15.57
2023-02-09T20:35:43.193Z,15.60
2023-02-09T20:38:13.730Z,16.40
2023-02-09T20:40:45.491Z,13.47
2023-02-09T20:43:28.313Z,15.47
2023-02-09T20:46:10.467Z,16.53
2023-02-09T20:48:43.018Z,15.20
2023-02-09T20:51:12.880Z,17.20
2023-02-09T20:53:42.847Z,15.53
2023-02-09T20:56:12.620Z,16.33
2023-02-09T20:58:42.486Z,16.33
2023-02-09T21:01:12.286Z,16.20
2023-02-09T21:03:44.840Z,16.77
2023-02-09T21:06:16.265Z,16.23
2023-02-09T21:08:46.419Z,16.17
2023-02-09T21:11:17.328Z,16.90
2023-02-09T21:13:47.355Z,15.97
2023-02-09T21:16:20.377Z,16.50
2023-02-09T21:18:53.343Z,20.17
2023-02-09T21:21:23.750Z,19.90
2023-02-09T21:23:53.433Z,17.03
2023-02-09T21:26:25.123Z,17.07
2023-02-09T21:28:58.200Z,16.77
2023-02-09T21:31:30.446Z,16.00
2023-02-09T21:34:02.824Z,16.50
2023-02-09T21:36:32.694Z,16.70
2023-02-09T21:39:02.478Z,16.73
2023-02-09T21:41:44.589Z,17.60
2023-02-09T21:44:15.192Z,17.57
2023-02-09T21:46:45.091Z,17.53
2023-02-09T21:49:17.799Z,17.60
2023-02-09T21:51:48.044Z,17.43
2023-02-09T21:54:18.853Z,16.73
2023-02-09T21:56:48.832Z,18.17
2023-02-09T21:59:18.652Z,15.63
2023-02-09T22:01:48.357Z,18.50
2023-02-09T22:04:20.893Z,16.20
2023-02-09T22:06:50.685Z,17.03
2023-02-09T22:09:20.506Z,17.60
2023-02-09T22:11:50.264Z,18.37
2023-02-09T22:14:21.071Z,17.13
2023-02-09T22:16:50.858Z,17.97
2023-02-09T22:19:23.314Z,17.67
2023-02-09T22:21:53.597Z,17.40
2023-02-09T22:24:23.325Z,18.30
2023-02-09T22:26:53.432Z,18.70
2023-02-09T22:29:23.250Z,18.03
2023-02-09T22:31:53.058Z,18.23
2023-02-09T22:34:25.375Z,18.70
2023-02-09T22:36:55.927Z,18.60
2023-02-09T22:39:25.788Z,17.73
2023-02-09T22:41:58.166Z,18.63
2023-02-09T22:44:28.000Z,18.27
2023-02-09T22:46:57.662Z,18.30
2023-02-09T22:49:30.030Z,18.50
2023-02-09T22:51:59.731Z,19.20
2023-02-09T22:54:31.077Z,19.50
2023-02-09T22:57:00.792Z,19.87
2023-02-09T22:59:30.538Z,18.13
2023-02-09T23:02:00.307Z,19.40
2023-02-09T23:04:33.305Z,18.10
2023-02-09T23:07:04.132Z,18.20
2023-02-09T23:09:34.543Z,18.00
2023-02-09T23:12:04.449Z,18.73
2023-02-09T23:14:34.168Z,19.13
2023-02-09T23:17:03.884Z,19.27
2023-02-09T23:19:36.266Z,19.03
2023-02-09T23:22:06.046Z,19.63
2023-02-09T23:24:35.754Z,19.70
2023-02-09T23:27:05.470Z,20.13
2023-02-09T23:29:35.173Z,19.73
2023-02-09T23:32:05.012Z,19.30
2023-02-09T23:34:37.474Z,18.83
2023-02-09T23:37:18.106Z,18.83
2023-02-09T23:39:53.346Z,19.40
2023-02-09T23:42:23.041Z,18.90
2023-02-09T23:44:52.712Z,20.23
2023-02-09T23:47:22.454Z,19.33
2023-02-09T23:49:54.743Z,19.57
2023-02-09T23:52:24.468Z,18.60
2023-02-09T23:54:54.144Z,19.70
2023-02-09T23:57:23.976Z,18.43
2023-02-09T23:59:56.383Z,19.80
